Map

Track Data

SID SEASON NUMBER BASIN SUBBASIN NAME ISO_TIME NATURE LAT LON WMO_WIND WMO_PRES WMO_AGENCY TRACK_TYPE DIST2LAND LANDFALL IFLAG USA_AGENCY USA_ATCF_ID USA_LAT USA_LON USA_RECORD USA_STATUS USA_WIND USA_PRES USA_SSHS USA_R34_NE USA_R34_SE USA_R34_SW USA_R34_NW USA_R50_NE USA_R50_SE USA_R50_SW USA_R50_NW USA_R64_NE USA_R64_SE USA_R64_SW USA_R64_NW USA_POCI USA_ROCI USA_RMW USA_EYE TOKYO_LAT TOKYO_LON TOKYO_GRADE TOKYO_WIND TOKYO_PRES TOKYO_R50_DIR TOKYO_R50_LONG TOKYO_R50_SHORT TOKYO_R30_DIR TOKYO_R30_LONG TOKYO_R30_SHORT TOKYO_LAND CMA_LAT CMA_LON CMA_CAT CMA_WIND CMA_PRES HKO_LAT HKO_LON HKO_CAT HKO_WIND HKO_PRES NEWDELHI_LAT NEWDELHI_LON NEWDELHI_GRADE NEWDELHI_WIND NEWDELHI_PRES NEWDELHI_CI NEWDELHI_DP NEWDELHI_POCI REUNION_LAT REUNION_LON REUNION_TYPE REUNION_WIND REUNION_PRES REUNION_TNUM REUNION_CI REUNION_RMW REUNION_R34_NE REUNION_R34_SE REUNION_R34_SW REUNION_R34_NW REUNION_R50_NE REUNION_R50_SE REUNION_R50_SW REUNION_R50_NW REUNION_R64_NE REUNION_R64_SE REUNION_R64_SW REUNION_R64_NW BOM_LAT BOM_LON BOM_TYPE BOM_WIND BOM_PRES BOM_TNUM BOM_CI BOM_RMW BOM_R34_NE BOM_R34_SE BOM_R34_SW BOM_R34_NW BOM_R50_NE BOM_R50_SE BOM_R50_SW BOM_R50_NW BOM_R64_NE BOM_R64_SE BOM_R64_SW BOM_R64_NW BOM_ROCI BOM_POCI BOM_EYE BOM_POS_METHOD BOM_PRES_METHOD NADI_LAT NADI_LON NADI_CAT NADI_WIND NADI_PRES WELLINGTON_LAT WELLINGTON_LON WELLINGTON_WIND WELLINGTON_PRES DS824_LAT DS824_LON DS824_STAGE DS824_WIND DS824_PRES TD9636_LAT TD9636_LON TD9636_STAGE TD9636_WIND TD9636_PRES TD9635_LAT TD9635_LON TD9635_WIND TD9635_PRES TD9635_ROCI NEUMANN_LAT NEUMANN_LON NEUMANN_CLASS NEUMANN_WIND NEUMANN_PRES MLC_LAT MLC_LON MLC_CLASS MLC_WIND MLC_PRES USA_GUST BOM_GUST BOM_GUST_PER REUNION_GUST REUNION_GUST_PER USA_SEAHGT USA_SEARAD_NE USA_SEARAD_SE USA_SEARAD_SW USA_SEARAD_NW STORM_SPEED STORM_DIR
1916112S07101 1916 19 SI WA NOT_NAMED 1916-04-20 18:00:00 NR -6.60000 101.200 main 301 301 __________O___ -1 -6.60000 101.200 7 8 233
1916112S07101 1916 19 SI WA NOT_NAMED 1916-04-20 21:00:00 NR -6.84553 100.874 main 339 339 __________P___ -1 -6.84553 100.874 7 8 233
1916112S07101 1916 19 SI WA NOT_NAMED 1916-04-21 00:00:00 NR -7.08276 100.558 main 386 386 __________P___ -1 -7.08276 100.558 7 8 233
1916112S07101 1916 19 SI WA NOT_NAMED 1916-04-21 03:00:00 NR -7.30360 100.263 main 425 425 __________P___ -1 -7.30360 100.263 7 7 233
1916112S07101 1916 19 SI WA NOT_NAMED 1916-04-21 06:00:00 NR -7.50000 100.000 main 464 464 __________O___ -1 -7.50000 100.000 7 6 233
1916112S07101 1916 19 SI WA NOT_NAMED 1916-04-21 09:00:00 NR -7.66581 99.7752 main 496 496 __________P___ -1 -7.66581 99.7752 7 5 234
1916112S07101 1916 19 SI WA NOT_NAMED 1916-04-21 12:00:00 NR -7.80233 99.5774 main 519 519 __________P___ -1 -7.80233 99.5774 7 5 237
1916112S07101 1916 19 SI WA NOT_NAMED 1916-04-21 15:00:00 NR -7.91270 99.3909 main 542 542 __________P___ -1 -7.91270 99.3909 7 4 242
1916112S07101 1916 19 SI WA NOT_NAMED 1916-04-21 18:00:00 NR -8.00000 99.2000 main 564 564 __________O___ -1 -8.00000 99.2000 7 4 248
1916112S07101 1916 19 SI WA NOT_NAMED 1916-04-21 21:00:00 NR -8.06741 98.9983 main 586 586 __________P___ -1 -8.06741 98.9983 7 4 254
1916112S07101 1916 19 SI WA NOT_NAMED 1916-04-22 00:00:00 NR -8.11486 98.7874 main 600 600 __________P___ -1 -8.11486 98.7874 7 4 259
1916112S07101 1916 19 SI WA NOT_NAMED 1916-04-22 03:00:00 NR -8.15488 98.5577 main 623 623 __________P___ -1 -8.15488 98.5577 7 5 260
1916112S07101 1916 19 SI WA NOT_NAMED 1916-04-22 06:00:00 NR -8.20000 98.3000 main 646 646 __________O___ -1 -8.20000 98.3000 7 6 259
1916112S07101 1916 19 SI WA NOT_NAMED 1916-04-22 09:00:00 NR -8.25973 97.9997 main 677 677 __________P___ -1 -8.25973 97.9997 7 6 258
1916112S07101 1916 19 SI WA NOT_NAMED 1916-04-22 12:00:00 NR -8.32756 97.6724 main 700 700 __________P___ -1 -8.32756 97.6724 7 7 257
1916112S07101 1916 19 SI WA NOT_NAMED 1916-04-22 15:00:00 NR -8.40660 97.3340 main 740 740 __________P___ -1 -8.40660 97.3340 7 7 255
1916112S07101 1916 19 SI WA NOT_NAMED 1916-04-22 18:00:00 NR -8.50000 97.0000 main 773 773 __________O___ -1 -8.50000 97.0000 7 7 253
1916112S07101 1916 19 SI WA NOT_NAMED 1916-04-22 21:00:00 NR -8.60651 96.6847 main 805 805 __________P___ -1 -8.60651 96.6847 7 7 250
1916112S07101 1916 19 SI WA NOT_NAMED 1916-04-23 00:00:00 NR -8.72744 96.3775 main 828 828 __________P___ -1 -8.72744 96.3775 7 6 247
1916112S07101 1916 19 SI WA NOT_NAMED 1916-04-23 03:00:00 NR -8.85965 96.0816 main 862 862 __________P___ -1 -8.85965 96.0816 7 6 244
1916112S07101 1916 19 SI WA NOT_NAMED 1916-04-23 06:00:00 NR -9.00000 95.8000 main 885 885 __________O___ -1 -9.00000 95.8000 7 6 242
1916112S07101 1916 19 SI WA NOT_NAMED 1916-04-23 09:00:00 NR -9.13863 95.5396 main 909 909 __________P___ -1 -9.13863 95.5396 7 6 240
1916112S07101 1916 19 SI WA NOT_NAMED 1916-04-23 12:00:00 NR -9.28483 95.2924 main 939 939 __________P___ -1 -9.28483 95.2924 7 6 238
1916112S07101 1916 19 SI WA NOT_NAMED 1916-04-23 15:00:00 NR -9.43863 95.0490 main 964 964 __________P___ -1 -9.43863 95.0490 7 6 237
1916112S07101 1916 19 SI WA NOT_NAMED 1916-04-23 18:00:00 NR -9.60000 94.8000 main 994 994 __________O___ -1 -9.60000 94.8000 7 6 237
1916112S07101 1916 19 SI WA NOT_NAMED 1916-04-23 21:00:00 NR -9.75543 94.5563 main 1024 1024 __________P___ -1 -9.75543 94.5563 7 6 237
1916112S07101 1916 19 SI WA NOT_NAMED 1916-04-24 00:00:00 NR -9.91969 94.3021 main 1050 1050 __________P___ -1 -9.91969 94.3021 7 6 237
1916112S07101 1916 19 SI WA NOT_NAMED 1916-04-24 03:00:00 NR -10.0991 94.0218 main 1086 1086 __________P___ -1 -10.0991 94.0218 7 7 237
1916112S07101 1916 19 SI WA NOT_NAMED 1916-04-24 06:00:00 NR -10.3000 93.7000 main 1122 1122 __________O___ -1 -10.3000 93.7000 7 8 238
1916112S07101 1916 19 SI WA NOT_NAMED 1916-04-24 09:00:00 NR -10.5326 93.3182 main 1164 1164 __________P___ -1 -10.5326 93.3182 7 9 238
1916112S07101 1916 19 SI WA NOT_NAMED 1916-04-24 12:00:00 NR -10.7851 92.8951 main 1216 1216 __________P___ -1 -10.7851 92.8951 7 10 239
1916112S07101 1916 19 SI WA NOT_NAMED 1916-04-24 15:00:00 NR -11.0450 92.4494 main 1265 1265 __________P___ -1 -11.0450 92.4494 7 10 240
1916112S07101 1916 19 SI WA NOT_NAMED 1916-04-24 18:00:00 NR -11.3000 92.0000 main 1318 1318 __________O___ -1 -11.3000 92.0000 7 9 240
1916112S07101 1916 19 SI WA NOT_NAMED 1916-04-24 21:00:00 NR -11.5152 91.6228 main 1362 1362 __________P___ -1 -11.5152 91.6228 7 9 240
1916112S07101 1916 19 SI WA NOT_NAMED 1916-04-25 00:00:00 NR -11.7263 91.2386 main 1406 1406 __________P___ -1 -11.7263 91.2386 7 9 241
1916112S07101 1916 19 SI WA NOT_NAMED 1916-04-25 03:00:00 NR -11.9493 90.8101 main 1450 1450 __________P___ -1 -11.9493 90.8101 7 10 243
1916112S07101 1916 19 SI WA NOT_NAMED 1916-04-25 06:00:00 NR -12.2000 90.3000 main 1511 1511 __________O___ -1 -12.2000 90.3000 7 13 245
1916112S07101 1916 19 SI MM NOT_NAMED 1916-04-25 09:00:00 NR -12.4765 89.6529 main 1578 1578 __________P___ -1 -12.4765 89.6529 7 15 247
1916112S07101 1916 19 SI MM NOT_NAMED 1916-04-25 12:00:00 NR -12.7833 88.9245 main 1661 1661 __________P___ -1 -12.7833 88.9245 7 16 246
1916112S07101 1916 19 SI MM NOT_NAMED 1916-04-25 15:00:00 NR -13.1233 88.1588 main 1738 1738 __________P___ -1 -13.1233 88.1588 7 17 244
1916112S07101 1916 19 SI MM NOT_NAMED 1916-04-25 18:00:00 NR -13.5000 87.4000 main 1830 1830 __________O___ -1 -13.5000 87.4000 7 16 242
1916112S07101 1916 19 SI MM NOT_NAMED 1916-04-25 21:00:00 NR -13.8562 86.7286 main 1915 1915 __________P___ -1 -13.8562 86.7286 7 15 240
1916112S07101 1916 19 SI MM NOT_NAMED 1916-04-26 00:00:00 NR -14.2561 86.0687 main 1993 1993 __________P___ -1 -14.2561 86.0687 7 16 236
1916112S07101 1916 19 SI MM NOT_NAMED 1916-04-26 03:00:00 NR -14.7279 85.3996 main 2078 2078 __________P___ -1 -14.7279 85.3996 7 17 232
1916112S07101 1916 19 SI MM NOT_NAMED 1916-04-26 06:00:00 NR -15.3000 84.7000 main 2179 2179 __________O___ -1 -15.3000 84.7000 7 19 231
1916112S07101 1916 19 SI MM NOT_NAMED 1916-04-26 09:00:00 NR -15.9566 83.8489 main 2303 2303 __________P___ -1 -15.9566 83.8489 7 22 229
1916112S07101 1916 19 SI MM NOT_NAMED 1916-04-26 12:00:00 NR -16.7156 82.9761 main 2419 2419 __________P___ -1 -16.7156 82.9761 7 23 225
1916112S07101 1916 19 SI MM NOT_NAMED 1916-04-26 15:00:00 NR -17.5664 82.1648 main 2550 2493 __________P___ -1 -17.5664 82.1648 7 23 218
1916112S07101 1916 19 SI MM NOT_NAMED 1916-04-26 18:00:00 NR -18.5000 81.5000 main 2491 2436 __________O___ -1 -18.5000 81.5000 7 22 209
1916112S07101 1916 19 SI MM NOT_NAMED 1916-04-26 21:00:00 NR -19.5072 81.0444 main 2425 2394 __________P___ -1 -19.5072 81.0444 7 22 198
1916112S07101 1916 19 SI MM NOT_NAMED 1916-04-27 00:00:00 NR -20.5722 80.7646 main 2394 2369 __________P___ -1 -20.5722 80.7646 7 22 191
1916112S07101 1916 19 SI MM NOT_NAMED 1916-04-27 03:00:00 NR -21.6763 80.6029 main 2369 2359 __________P___ -1 -21.6763 80.6029 7 23 186
1916112S07101 1916 19 SI MM NOT_NAMED 1916-04-27 06:00:00 NR -22.8000 80.5000 main 2361 __________O___ -1 -22.8000 80.5000 7 23 185

About IBTrACS Database

This database is a web-friendly format of International Best Track Archive for Climate Stewardship (IBTrACS), a global best track data archive curated by NOAA dating back to 1842.

Updated: 2021-12-01